x

Sheboygan, Wi (sgnw3) Weather Station

3:00pm - Fri 30th Jan 2015 All times are CST. -6 hours from GMT.

  • Wind
    7mph, 8mph gusts
  • Air Temp 20°f
  • Sea Pressure 1032.1mb
  • Sheboygan, Wi
  • Sheboygan, Wi

More Historic Weather Station data

Upgrade to MSW Pro to gain access to the past 30 days of data for over 8000 Wavebouys and Weather Stations around the globe.

Join Pro

Comparision Forecast

View Surf forecast
   
Fri 01/30 3:00pm 7 8 mph 1032.1mb 20f
2:00pm 8 9 mph 1032.5mb 19f
1:00pm 3 5 mph 1033.5mb 19f
12:00pm 7 8 mph 1034.3mb 18f
11:00am 6 7 mph 1035.1mb 18f
10:00am 11 13 mph 1035.2mb 18f
9:00am 11 14 mph 1034.6mb 18f
8:00am 16 20 mph 1034.2mb 18f
7:00am 15 18 mph 1033.8mb 18f
6:00am 16 18 mph 1033mb 19f
5:00am 17 23 mph 1032.5mb 19f
4:00am 20 23 mph 1031.7mb 20f
3:00am 18 21 mph 1031.1mb 20f
2:00am 24 26 mph 1030.5mb 21f
1:00am 28 31 mph 1029.4mb 22f
12:00am 24 29 mph 1028.6mb 24f
Thu 01/29 11:00pm 21 26 mph 1028.1mb 25f
10:00pm 26 31 mph 1027.1mb 25f
9:00pm 24 32 mph 1025.8mb 27f
8:00pm 29 32 mph 1024.3mb 28f
7:00pm 24 30 mph 1022.7mb 31f
6:00pm 18 22 mph 1021mb 33f
5:00pm 21 25 mph 1019.2mb 34f
4:00pm 15 20 mph 1017.4mb 35f
3:00pm 15 18 mph 1016mb 34f
2:00pm 20 22 mph 1014.8mb 34f
1:00pm 21 24 mph 1014.2mb 33f
12:00pm 22 26 mph 1013.5mb 33f
11:00am 22 26 mph 1013.2mb 32f
10:00am 21 25 mph 1012.3mb 31f
9:00am 17 22 mph 1011.3mb 31f
8:00am 17 21 mph 1010.5mb 31f
7:00am 16 20 mph 1009.2mb 32f
6:00am 9 10 mph 1008.3mb 33f
5:00am 5
mph
1007.9mb 34f
4:00am 7 8 mph 1008.3mb 35f
3:00am 13 14 mph 1008.8mb 35f
2:00am 15 16 mph 1009.8mb 34f
1:00am 21 23 mph 1010mb 34f
12:00am 21 23 mph 1010.7mb 34f
Wed 01/28 11:00pm 25 28 mph 1011.7mb 34f
10:00pm 30 34 mph 1012.3mb 34f
9:00pm 30 33 mph 1013.5mb 34f
8:00pm 30 34 mph 1014mb 33f
7:00pm 31 37 mph 1014.8mb 33f
6:00pm 33 38 mph 1015.8mb 33f
5:00pm 32 34 mph 1017.2mb 33f
4:00pm 30 33 mph 1018.2mb 32f
3:00pm 25 28 mph 1019.2mb 32f
2:00pm 24 28 mph 1020.3mb 31f
1:00pm 25 29 mph 1021.4mb 30f
12:00pm 24 26 mph 1022.2mb 29f
11:00am 17 20 mph 1024mb 30f
10:00am 11 14 mph 1024.7mb 29f
9:00am 8 9 mph 1025.1mb 27f
8:00am 11 14 mph 1025.3mb 29f
7:00am 11 13 mph 1025.4mb 29f
6:00am 11 13 mph 1025.3mb 28f
5:00am 10 11 mph 1025.2mb 28f
4:00am 6 7 mph 1025.4mb 27f
3:00am 1
mph
1026.2mb 26f
2:00am 6 7 mph 1026mb 26f
1:00am 5 6 mph 1025.7mb 26f
12:00am 6
mph
1025.5mb 26f
Tue 01/27 11:00pm  -  1 mph 1025.3mb 27f
10:00pm 3 5 mph 1025.6mb 27f
9:00pm 6 9 mph 1025.4mb 27f
8:00pm 7 8 mph 1025.1mb 27f
7:00pm 5 6 mph 1025.6mb 27f
6:00pm 13 15 mph 1025.3mb 27f
5:00pm 8 10 mph 1025.4mb 27f
4:00pm 8 10 mph 1025mb 26f
3:00pm 7 8 mph 1024.7mb 27f
2:00pm 9 10 mph 1024.2mb 26f
1:00pm 9 10 mph 1024.1mb 26f
12:00pm 7 8 mph 1024.1mb 26f
11:00am 8 9 mph 1023.8mb 26f
10:00am 13 15 mph 1023.5mb 26f
9:00am 11 15 mph 1022.6mb 26f
8:00am 13 14 mph 1021.7mb 26f
7:00am 13 15 mph 1021.1mb 26f
6:00am 13 15 mph 1019.9mb 26f
5:00am 9 11 mph 1019.1mb 26f
4:00am 8 10 mph 1018.4mb 26f
3:00am 14 16 mph 1017.7mb 26f
2:00am 20 21 mph 1016.7mb 26f
1:00am 11 14 mph 1016mb 26f
12:00am 17 18 mph 1015.2mb 27f
Mon 01/26 11:00pm 18 21 mph 1014.9mb 28f